Bishop, Georgia
Current Conditions -  °F | °C
As of 8:51 AM on Friday 24 Oct 2014 (Local Time) from KAHN Reporting Station
Clear Clear  
Wind Chill: 49°   Ceiling: Unl
Heat Index: 49°   Visibility: 8mi
Dew Point: 46°   Wind: 0mph
Humidity: 90%   Direction: NA
Pressure: 30.07"   Gusts: NA
Location:  33.82°N, 83.44°W
Report Text: KAHN 241251Z 00000KT 8SM CLR 09/08 A3007 RMK AO2 SLP185 T00940078
Loading
Personal Weather Stations






























Interactive Weather Map
Tropical Storm Tracking
New forecast layout! Learn more

10-Day Weather Forecast

Advertisements
Track Severe Weather on mobile